sensor_id;sensor_type;location;lat;lon;timestamp;pressure;altitude;pressure_sealevel;temperature;humidity
31403;BME280;18039;52.188;21.024;2022-07-23T00:01:39;74649.47;;;-141.45;48.36
31403;BME280;18039;52.188;21.024;2022-07-23T00:04:08;74655.53;;;-141.45;48.45
31403;BME280;18039;52.188;21.024;2022-07-23T00:06:35;74659.59;;;-141.45;48.81
31403;BME280;18039;52.188;21.024;2022-07-23T00:09:02;74665.66;;;-141.45;48.90
31403;BME280;18039;52.188;21.024;2022-07-23T00:11:30;74671.75;;;-141.45;49.13
31403;BME280;18039;52.188;21.024;2022-07-23T00:13:57;74677.81;;;-141.45;49.15
31403;BME280;18039;52.188;21.024;2022-07-23T00:16:25;74683.91;;;-141.45;49.58
31403;BME280;18039;52.188;21.024;2022-07-23T00:18:51;74692.00;;;-141.45;49.56
31403;BME280;18039;52.188;21.024;2022-07-23T00:21:19;74694.03;;;-141.45;49.76
31403;BME280;18039;52.188;21.024;2022-07-23T00:23:45;74696.06;;;-141.45;50.09
31403;BME280;18039;52.188;21.024;2022-07-23T00:26:12;74708.22;;;-141.45;50.82
31403;BME280;18039;52.188;21.024;2022-07-23T00:28:39;74716.31;;;-141.45;50.46
31403;BME280;18039;52.188;21.024;2022-07-23T00:31:06;74730.50;;;-141.45;50.92
31403;BME280;18039;52.188;21.024;2022-07-23T00:33:33;74740.63;;;-141.45;51.67
31403;BME280;18039;52.188;21.024;2022-07-23T00:36:00;74760.88;;;-141.45;51.68
31403;BME280;18039;52.188;21.024;2022-07-23T00:38:27;74769.00;;;-141.45;52.33
31403;BME280;18039;52.188;21.024;2022-07-23T00:40:55;74785.19;;;-141.45;52.56
31403;BME280;18039;52.188;21.024;2022-07-23T00:43:23;74793.31;;;-141.45;52.80
31403;BME280;18039;52.188;21.024;2022-07-23T00:45:50;74805.47;;;-141.45;53.02
31403;BME280;18039;52.188;21.024;2022-07-23T00:48:17;74797.34;;;-141.45;53.13
31403;BME280;18039;52.188;21.024;2022-07-23T00:50:45;74801.41;;;-141.45;53.39
31403;BME280;18039;52.188;21.024;2022-07-23T00:53:13;74801.41;;;-141.45;53.42
31403;BME280;18039;52.188;21.024;2022-07-23T00:55:40;74797.34;;;-141.45;53.68
31403;BME280;18039;52.188;21.024;2022-07-23T00:58:08;74809.50;;;-141.45;54.08
31403;BME280;18039;52.188;21.024;2022-07-23T01:00:36;74821.66;;;-141.45;54.37
31403;BME280;18039;52.188;21.024;2022-07-23T01:03:03;74833.81;;;-141.45;54.72
31403;BME280;18039;52.188;21.024;2022-07-23T01:05:30;74837.88;;;-141.45;54.77
31403;BME280;18039;52.188;21.024;2022-07-23T01:07:57;74845.97;;;-141.45;54.96
31403;BME280;18039;52.188;21.024;2022-07-23T01:10:25;74862.19;;;-141.45;55.52
31403;BME280;18039;52.188;21.024;2022-07-23T01:13:00;74870.28;;;-141.45;55.65
31403;BME280;18039;52.188;21.024;2022-07-23T01:15:28;74874.34;;;-141.45;56.00
31403;BME280;18039;52.188;21.024;2022-07-23T01:17:55;74890.56;;;-141.45;56.63
31403;BME280;18039;52.188;21.024;2022-07-23T01:20:23;74894.59;;;-141.45;56.94
31403;BME280;18039;52.188;21.024;2022-07-23T01:22:51;74914.88;;;-141.45;57.50
31403;BME280;18039;52.188;21.024;2022-07-23T01:25:19;74914.88;;;-141.45;57.70
31403;BME280;18039;52.188;21.024;2022-07-23T01:27:54;74918.91;;;-141.45;57.74
31403;BME280;18039;52.188;21.024;2022-07-23T01:30:21;74922.97;;;-141.45;57.75
31403;BME280;18039;52.188;21.024;2022-07-23T01:32:48;74927.03;;;-141.45;58.20
31403;BME280;18039;52.188;21.024;2022-07-23T01:35:15;74939.19;;;-141.45;58.60
31403;BME280;18039;52.188;21.024;2022-07-23T01:37:43;74939.19;;;-141.45;58.63
31403;BME280;18039;52.188;21.024;2022-07-23T01:40:10;74953.38;;;-141.45;59.24
31403;BME280;18039;52.188;21.024;2022-07-23T01:42:38;74959.44;;;-141.45;59.64
31403;BME280;18039;52.188;21.024;2022-07-23T01:45:09;74969.56;;;-141.45;59.50
31403;BME280;18039;52.188;21.024;2022-07-23T01:47:40;74975.66;;;-141.45;59.63
31403;BME280;18039;52.188;21.024;2022-07-23T01:50:07;74979.69;;;-141.45;59.82
31403;BME280;18039;52.188;21.024;2022-07-23T01:52:43;74979.69;;;-141.45;60.08
31403;BME280;18039;52.188;21.024;2022-07-23T01:55:10;74987.81;;;-141.45;60.37
31403;BME280;18039;52.188;21.024;2022-07-23T01:57:46;74991.84;;;-141.45;61.08
31403;BME280;18039;52.188;21.024;2022-07-23T02:00:13;74999.97;;;-141.45;60.91
31403;BME280;18039;52.188;21.024;2022-07-23T02:02:45;74999.97;;;-141.45;61.23
31403;BME280;18039;52.188;21.024;2022-07-23T02:05:13;75008.06;;;-141.45;61.77
31403;BME280;18039;52.188;21.024;2022-07-23T02:07:40;75016.16;;;-141.45;62.33
31403;BME280;18039;52.188;21.024;2022-07-23T02:10:07;75016.16;;;-141.45;62.60
31403;BME280;18039;52.188;21.024;2022-07-23T02:12:37;75020.22;;;-141.45;62.36
31403;BME280;18039;52.188;21.024;2022-07-23T02:15:04;75028.31;;;-141.45;62.49
31403;BME280;18039;52.188;21.024;2022-07-23T02:17:35;75028.31;;;-141.45;62.60
31403;BME280;18039;52.188;21.024;2022-07-23T02:20:03;75042.50;;;-141.45;63.38
31403;BME280;18039;52.188;21.024;2022-07-23T02:22:30;75052.66;;;-141.45;64.13
31403;BME280;18039;52.188;21.024;2022-07-23T02:24:58;75058.72;;;-141.45;64.33
31403;BME280;18039;52.188;21.024;2022-07-23T02:27:26;75060.75;;;-141.45;64.09
31403;BME280;18039;52.188;21.024;2022-07-23T02:29:55;75064.81;;;-141.45;64.02
31403;BME280;18039;52.188;21.024;2022-07-23T02:32:24;75060.75;;;-141.45;63.90
31403;BME280;18039;52.188;21.024;2022-07-23T02:34:51;75058.72;;;-141.45;63.84
31403;BME280;18039;52.188;21.024;2022-07-23T02:37:20;75052.66;;;-141.45;63.76
31403;BME280;18039;52.188;21.024;2022-07-23T02:39:47;75048.59;;;-141.45;64.00
31403;BME280;18039;52.188;21.024;2022-07-23T02:42:15;75052.66;;;-141.45;63.79
31403;BME280;18039;52.188;21.024;2022-07-23T02:44:42;75044.53;;;-141.45;63.90
31403;BME280;18039;52.188;21.024;2022-07-23T02:47:09;75050.63;;;-141.45;63.70
31403;BME280;18039;52.188;21.024;2022-07-23T02:49:37;75044.53;;;-141.45;63.87
31403;BME280;18039;52.188;21.024;2022-07-23T02:52:05;75050.63;;;-141.45;64.34
31403;BME280;18039;52.188;21.024;2022-07-23T02:54:32;75060.75;;;-141.45;65.53
31403;BME280;18039;52.188;21.024;2022-07-23T02:56:59;75068.84;;;-141.45;65.93
31403;BME280;18039;52.188;21.024;2022-07-23T02:59:26;75072.91;;;-141.45;65.50
31403;BME280;18039;52.188;21.024;2022-07-23T03:01:53;75074.94;;;-141.45;66.41
31403;BME280;18039;52.188;21.024;2022-07-23T03:04:20;75085.06;;;-141.45;66.26
31403;BME280;18039;52.188;21.024;2022-07-23T03:06:47;75081.00;;;-141.45;66.23
31403;BME280;18039;52.188;21.024;2022-07-23T03:09:14;75085.06;;;-141.45;66.58
31403;BME280;18039;52.188;21.024;2022-07-23T03:11:41;75089.13;;;-141.45;66.68
31403;BME280;18039;52.188;21.024;2022-07-23T03:14:08;75097.22;;;-141.45;67.40
31403;BME280;18039;52.188;21.024;2022-07-23T03:16:35;75097.22;;;-141.45;67.65
31403;BME280;18039;52.188;21.024;2022-07-23T03:19:03;75095.19;;;-141.45;67.16
31403;BME280;18039;52.188;21.024;2022-07-23T03:21:32;75081.00;;;-141.45;66.71
31403;BME280;18039;52.188;21.024;2022-07-23T03:24:01;75060.75;;;-141.45;65.95
31403;BME280;18039;52.188;21.024;2022-07-23T03:26:29;75052.66;;;-141.45;65.43
31403;BME280;18039;52.188;21.024;2022-07-23T03:28:56;75048.59;;;-141.45;64.97
31403;BME280;18039;52.188;21.024;2022-07-23T03:31:23;75046.56;;;-141.45;64.89
31403;BME280;18039;52.188;21.024;2022-07-23T03:33:51;75040.47;;;-141.45;64.92
31403;BME280;18039;52.188;21.024;2022-07-23T03:36:18;75036.44;;;-141.45;65.14
31403;BME280;18039;52.188;21.024;2022-07-23T03:38:48;75036.44;;;-141.45;64.83
31403;BME280;18039;52.188;21.024;2022-07-23T03:41:15;75028.31;;;-141.45;64.41
31403;BME280;18039;52.188;21.024;2022-07-23T03:43:43;75032.38;;;-141.45;64.35
31403;BME280;18039;52.188;21.024;2022-07-23T03:46:11;75020.22;;;-141.45;64.25
31403;BME280;18039;52.188;21.024;2022-07-23T03:48:39;75020.22;;;-141.45;63.56
31403;BME280;18039;52.188;21.024;2022-07-23T03:51:06;75016.16;;;-141.45;63.19
31403;BME280;18039;52.188;21.024;2022-07-23T03:53:33;75020.22;;;-141.45;63.47
31403;BME280;18039;52.188;21.024;2022-07-23T03:56:00;75020.22;;;-141.45;63.64
31403;BME280;18039;52.188;21.024;2022-07-23T03:58:28;75012.13;;;-141.45;63.41
31403;BME280;18039;52.188;21.024;2022-07-23T04:00:54;75024.28;;;-141.45;63.84
31403;BME280;18039;52.188;21.024;2022-07-23T04:03:22;75028.31;;;-141.45;64.09
31403;BME280;18039;52.188;21.024;2022-07-23T04:05:49;75030.34;;;-141.45;63.90
31403;BME280;18039;52.188;21.024;2022-07-23T04:08:16;75020.22;;;-141.45;64.05
31403;BME280;18039;52.188;21.024;2022-07-23T04:10:48;75024.28;;;-141.45;64.29
31403;BME280;18039;52.188;21.024;2022-07-23T04:13:14;75016.16;;;-141.45;63.82
31403;BME280;18039;52.188;21.024;2022-07-23T04:15:42;75008.06;;;-141.45;63.64
31403;BME280;18039;52.188;21.024;2022-07-23T04:18:09;75012.13;;;-141.45;63.27
31403;BME280;18039;52.188;21.024;2022-07-23T04:20:57;74999.97;;;-141.45;63.29
31403;BME280;18039;52.188;21.024;2022-07-23T04:23:25;74991.84;;;-141.45;63.11
31403;BME280;18039;52.188;21.024;2022-07-23T04:25:52;74983.75;;;-141.45;63.15
31403;BME280;18039;52.188;21.024;2022-07-23T04:28:19;74983.75;;;-141.45;62.62
31403;BME280;18039;52.188;21.024;2022-07-23T04:30:46;74967.53;;;-141.45;62.32
31403;BME280;18039;52.188;21.024;2022-07-23T04:33:15;74959.44;;;-141.45;62.00
31403;BME280;18039;52.188;21.024;2022-07-23T04:35:43;74955.38;;;-141.45;61.81
31403;BME280;18039;52.188;21.024;2022-07-23T04:38:18;74943.22;;;-141.45;62.11
31403;BME280;18039;52.188;21.024;2022-07-23T04:40:47;74935.13;;;-141.45;61.86
31403;BME280;18039;52.188;21.024;2022-07-23T04:43:14;74931.06;;;-141.45;61.44
31403;BME280;18039;52.188;21.024;2022-07-23T04:45:47;74914.88;;;-141.45;61.52
31403;BME280;18039;52.188;21.024;2022-07-23T04:48:14;74908.78;;;-141.45;61.07
31403;BME280;18039;52.188;21.024;2022-07-23T04:50:43;74894.59;;;-141.45;61.06
31403;BME280;18039;52.188;21.024;2022-07-23T04:53:22;74884.47;;;-141.45;61.12
31403;BME280;18039;52.188;21.024;2022-07-23T04:55:51;74878.41;;;-141.45;60.76
31403;BME280;18039;52.188;21.024;2022-07-23T04:58:18;74874.34;;;-141.45;60.49
31403;BME280;18039;52.188;21.024;2022-07-23T05:00:45;74868.25;;;-141.45;60.31
31403;BME280;18039;52.188;21.024;2022-07-23T05:03:12;74870.28;;;-141.45;60.39
31403;BME280;18039;52.188;21.024;2022-07-23T05:05:39;74845.97;;;-141.45;59.60
31403;BME280;18039;52.188;21.024;2022-07-23T05:08:13;74793.31;;;-141.45;58.52
31403;BME280;18039;52.188;21.024;2022-07-23T05:10:42;74756.84;;;-141.45;56.89
31403;BME280;18039;52.188;21.024;2022-07-23T05:13:09;74724.41;;;-141.45;56.02
31403;BME280;18039;52.188;21.024;2022-07-23T05:15:36;74683.91;;;-141.45;55.44
31403;BME280;18039;52.188;21.024;2022-07-23T05:18:03;74647.44;;;-141.45;54.12
31403;BME280;18039;52.188;21.024;2022-07-23T05:20:31;74598.81;;;-141.45;51.75
31403;BME280;18039;52.188;21.024;2022-07-23T05:22:59;74562.34;;;-141.45;51.63
31403;BME280;18039;52.188;21.024;2022-07-23T05:25:26;74538.03;;;-141.45;50.47
31403;BME280;18039;52.188;21.024;2022-07-23T05:27:53;74550.19;;;-141.45;50.97
31403;BME280;18039;52.188;21.024;2022-07-23T05:30:20;74538.03;;;-141.45;50.93
31403;BME280;18039;52.188;21.024;2022-07-23T05:32:50;74540.06;;;-141.45;50.47
31403;BME280;18039;52.188;21.024;2022-07-23T05:35:17;74574.50;;;-141.45;50.73
31403;BME280;18039;52.188;21.024;2022-07-23T05:37:57;74606.91;;;-141.45;51.76
31403;BME280;18039;52.188;21.024;2022-07-23T05:40:23;74615.00;;;-141.45;52.36
31403;BME280;18039;52.188;21.024;2022-07-23T05:42:51;74623.13;;;-141.45;52.31
31403;BME280;18039;52.188;21.024;2022-07-23T05:45:18;74627.16;;;-141.45;51.65
31403;BME280;18039;52.188;21.024;2022-07-23T05:47:46;74631.22;;;-141.45;52.00
31403;BME280;18039;52.188;21.024;2022-07-23T05:50:21;74643.38;;;-141.45;52.83
31403;BME280;18039;52.188;21.024;2022-07-23T05:52:55;74635.28;;;-141.45;53.06
31403;BME280;18039;52.188;21.024;2022-07-23T05:55:51;74631.22;;;-141.45;52.64
31403;BME280;18039;52.188;21.024;2022-07-23T05:58:18;74615.00;;;-141.45;52.24
31403;BME280;18039;52.188;21.024;2022-07-23T06:00:46;74598.81;;;-141.45;50.39
31403;BME280;18039;52.188;21.024;2022-07-23T06:03:13;74613.00;;;-141.45;51.23
31403;BME280;18039;52.188;21.024;2022-07-23T06:05:41;74608.94;;;-141.45;51.82
31403;BME280;18039;52.188;21.024;2022-07-23T06:08:09;74615.00;;;-141.45;51.88
31403;BME280;18039;52.188;21.024;2022-07-23T06:10:37;74604.88;;;-141.45;51.50
31403;BME280;18039;52.188;21.024;2022-07-23T06:13:04;74594.75;;;-141.45;51.60
31403;BME280;18039;52.188;21.024;2022-07-23T06:15:31;74578.53;;;-141.45;51.45
31403;BME280;18039;52.188;21.024;2022-07-23T06:17:58;74570.44;;;-141.45;50.88
31403;BME280;18039;52.188;21.024;2022-07-23T06:20:25;74574.50;;;-141.45;50.82
31403;BME280;18039;52.188;21.024;2022-07-23T06:22:52;74560.31;;;-141.45;50.41
31403;BME280;18039;52.188;21.024;2022-07-23T06:25:19;74550.19;;;-141.45;49.30
31403;BME280;18039;52.188;21.024;2022-07-23T06:27:47;74533.97;;;-141.45;49.08
31403;BME280;18039;52.188;21.024;2022-07-23T06:30:14;74529.94;;;-141.45;49.55
31403;BME280;18039;52.188;21.024;2022-07-23T06:32:46;74529.94;;;-141.45;49.80
31403;BME280;18039;52.188;21.024;2022-07-23T06:35:15;74525.88;;;-141.45;49.38
31403;BME280;18039;52.188;21.024;2022-07-23T06:37:42;74517.78;;;-141.45;48.30
31403;BME280;18039;52.188;21.024;2022-07-23T06:40:10;74493.47;;;-141.45;47.82
31403;BME280;18039;52.188;21.024;2022-07-23T06:42:38;74501.56;;;-141.45;48.29
31403;BME280;18039;52.188;21.024;2022-07-23T06:45:06;74483.31;;;-141.45;48.19
31403;BME280;18039;52.188;21.024;2022-07-23T06:47:36;74477.25;;;-141.45;48.41
31403;BME280;18039;52.188;21.024;2022-07-23T06:50:03;74477.25;;;-141.45;48.66
31403;BME280;18039;52.188;21.024;2022-07-23T06:52:31;74469.16;;;-141.45;48.07
31403;BME280;18039;52.188;21.024;2022-07-23T06:54:58;74463.06;;;-141.45;47.62
31403;BME280;18039;52.188;21.024;2022-07-23T06:57:25;74452.94;;;-141.45;47.42
31403;BME280;18039;52.188;21.024;2022-07-23T06:59:52;74440.78;;;-141.45;46.72
31403;BME280;18039;52.188;21.024;2022-07-23T07:02:22;74448.91;;;-141.45;46.63
31403;BME280;18039;52.188;21.024;2022-07-23T07:04:49;74440.78;;;-141.45;46.86
31403;BME280;18039;52.188;21.024;2022-07-23T07:07:16;74448.91;;;-141.45;47.08
31403;BME280;18039;52.188;21.024;2022-07-23T07:09:43;74426.59;;;-141.45;47.00
31403;BME280;18039;52.188;21.024;2022-07-23T07:12:14;74410.41;;;-141.45;46.78
31403;BME280;18039;52.188;21.024;2022-07-23T07:14:41;74412.44;;;-141.45;47.34
31403;BME280;18039;52.188;21.024;2022-07-23T07:17:08;74412.44;;;-141.45;46.93
31403;BME280;18039;52.188;21.024;2022-07-23T07:19:35;74396.22;;;-141.45;46.39
31403;BME280;18039;52.188;21.024;2022-07-23T07:22:02;74400.28;;;-141.45;46.80
31403;BME280;18039;52.188;21.024;2022-07-23T07:24:30;74388.13;;;-141.45;45.65
31403;BME280;18039;52.188;21.024;2022-07-23T07:27:03;74388.13;;;-141.45;46.37
31403;BME280;18039;52.188;21.024;2022-07-23T07:29:31;74388.13;;;-141.45;46.36
31403;BME280;18039;52.188;21.024;2022-07-23T07:31:58;74388.13;;;-141.45;46.04
31403;BME280;18039;52.188;21.024;2022-07-23T07:34:25;74380.00;;;-141.45;45.61
31403;BME280;18039;52.188;21.024;2022-07-23T07:36:51;74375.97;;;-141.45;46.14
31403;BME280;18039;52.188;21.024;2022-07-23T07:39:19;74373.94;;;-141.45;45.86
31403;BME280;18039;52.188;21.024;2022-07-23T07:41:46;74371.91;;;-141.45;46.28
31403;BME280;18039;52.188;21.024;2022-07-23T07:44:13;74367.84;;;-141.45;46.01
31403;BME280;18039;52.188;21.024;2022-07-23T07:46:40;74359.75;;;-141.45;46.29
31403;BME280;18039;52.188;21.024;2022-07-23T07:49:07;74355.69;;;-141.45;46.11
31403;BME280;18039;52.188;21.024;2022-07-23T07:51:41;74359.75;;;-141.45;46.25
31403;BME280;18039;52.188;21.024;2022-07-23T07:54:11;74351.66;;;-141.45;45.06
31403;BME280;18039;52.188;21.024;2022-07-23T07:56:39;74347.59;;;-141.45;45.54
31403;BME280;18039;52.188;21.024;2022-07-23T07:59:06;74347.59;;;-141.45;45.50
31403;BME280;18039;52.188;21.024;2022-07-23T08:01:33;74329.38;;;-141.45;44.78
31403;BME280;18039;52.188;21.024;2022-07-23T08:04:00;74319.25;;;-141.45;44.33
31403;BME280;18039;52.188;21.024;2022-07-23T08:06:28;74317.22;;;-141.45;44.42
31403;BME280;18039;52.188;21.024;2022-07-23T08:08:55;74311.13;;;-141.45;44.36
31403;BME280;18039;52.188;21.024;2022-07-23T08:11:22;74331.41;;;-141.45;44.79
31403;BME280;18039;52.188;21.024;2022-07-23T08:13:49;74331.41;;;-141.45;44.92
31403;BME280;18039;52.188;21.024;2022-07-23T08:16:16;74319.25;;;-141.45;45.13
31403;BME280;18039;52.188;21.024;2022-07-23T08:18:43;74307.09;;;-141.45;44.49
31403;BME280;18039;52.188;21.024;2022-07-23T08:21:10;74298.97;;;-141.45;44.56
31403;BME280;18039;52.188;21.024;2022-07-23T08:23:38;74294.94;;;-141.45;44.43
31403;BME280;18039;52.188;21.024;2022-07-23T08:26:05;74282.78;;;-141.45;44.34
31403;BME280;18039;52.188;21.024;2022-07-23T08:28:32;74274.69;;;-141.45;44.40
31403;BME280;18039;52.188;21.024;2022-07-23T08:31:00;74258.47;;;-141.45;43.02
31403;BME280;18039;52.188;21.024;2022-07-23T08:33:27;74250.38;;;-141.45;43.73
31403;BME280;18039;52.188;21.024;2022-07-23T08:36:03;74234.16;;;-141.45;43.47
31403;BME280;18039;52.188;21.024;2022-07-23T08:38:31;74238.22;;;-141.45;43.26
31403;BME280;18039;52.188;21.024;2022-07-23T08:40:59;74238.22;;;-141.45;43.51
31403;BME280;18039;52.188;21.024;2022-07-23T08:43:28;74238.22;;;-141.45;43.85
31403;BME280;18039;52.188;21.024;2022-07-23T08:45:57;74244.28;;;-141.45;43.17
31403;BME280;18039;52.188;21.024;2022-07-23T08:48:29;74244.28;;;-141.45;42.63
31403;BME280;18039;52.188;21.024;2022-07-23T08:50:58;74238.22;;;-141.45;42.95
31403;BME280;18039;52.188;21.024;2022-07-23T08:53:28;74226.06;;;-141.45;42.38
31403;BME280;18039;52.188;21.024;2022-07-23T08:56:00;74222.00;;;-141.45;42.34
31403;BME280;18039;52.188;21.024;2022-07-23T08:58:31;74222.00;;;-141.45;42.76
31403;BME280;18039;52.188;21.024;2022-07-23T09:00:59;74222.00;;;-141.45;41.95
31403;BME280;18039;52.188;21.024;2022-07-23T09:03:32;74205.81;;;-141.45;41.24
31403;BME280;18039;52.188;21.024;2022-07-23T09:06:00;74201.75;;;-141.45;41.24
31403;BME280;18039;52.188;21.024;2022-07-23T09:08:41;74197.69;;;-141.45;42.00
31403;BME280;18039;52.188;21.024;2022-07-23T09:11:11;74209.84;;;-141.45;41.63
31403;BME280;18039;52.188;21.024;2022-07-23T09:13:41;74209.84;;;-141.45;42.07
31403;BME280;18039;52.188;21.024;2022-07-23T09:16:18;74205.81;;;-141.45;42.36
31403;BME280;18039;52.188;21.024;2022-07-23T09:18:52;74181.50;;;-141.45;40.57
31403;BME280;18039;52.188;21.024;2022-07-23T09:23:54;74181.50;;;-141.45;40.96
31403;BME280;18039;52.188;21.024;2022-07-23T09:28:53;74157.19;;;-141.45;40.38
31403;BME280;18039;52.188;21.024;2022-07-23T09:31:21;74157.19;;;-141.45;41.01
31403;BME280;18039;52.188;21.024;2022-07-23T09:33:48;74165.28;;;-141.45;39.98
31403;BME280;18039;52.188;21.024;2022-07-23T09:36:29;74165.28;;;-141.45;39.78
31403;BME280;18039;52.188;21.024;2022-07-23T09:38:56;74169.34;;;-141.45;39.43
31403;BME280;18039;52.188;21.024;2022-07-23T09:41:23;74140.97;;;-141.45;37.76
31403;BME280;18039;52.188;21.024;2022-07-23T09:43:54;74132.88;;;-141.45;37.34
31403;BME280;18039;52.188;21.024;2022-07-23T09:46:27;74120.72;;;-141.45;38.53
31403;BME280;18039;52.188;21.024;2022-07-23T09:48:55;74102.50;;;-141.45;39.04
31403;BME280;18039;52.188;21.024;2022-07-23T09:51:24;74120.72;;;-141.45;38.63
31403;BME280;18039;52.188;21.024;2022-07-23T09:53:51;74108.56;;;-141.45;37.37
31403;BME280;18039;52.188;21.024;2022-07-23T09:56:20;74098.44;;;-141.45;36.50
31403;BME280;18039;52.188;21.024;2022-07-23T09:58:53;74094.38;;;-141.45;37.28
31403;BME280;18039;52.188;21.024;2022-07-23T10:01:34;74100.47;;;-141.45;37.38
31403;BME280;18039;52.188;21.024;2022-07-23T10:04:01;74096.41;;;-141.45;37.99
31403;BME280;18039;52.188;21.024;2022-07-23T10:06:54;74092.38;;;-141.45;38.39
31403;BME280;18039;52.188;21.024;2022-07-23T10:09:40;74072.09;;;-141.45;38.19
31403;BME280;18039;52.188;21.024;2022-07-23T10:12:31;74078.19;;;-141.45;38.17
31403;BME280;18039;52.188;21.024;2022-07-23T10:15:05;74064.00;;;-141.45;38.64
31403;BME280;18039;52.188;21.024;2022-07-23T10:17:35;74041.72;;;-141.45;38.50
31403;BME280;18039;52.188;21.024;2022-07-23T10:20:03;74031.59;;;-141.45;37.65
31403;BME280;18039;52.188;21.024;2022-07-23T10:22:35;74035.66;;;-141.45;37.98
31403;BME280;18039;52.188;21.024;2022-07-23T10:28:27;74027.53;;;-141.45;39.49
31403;BME280;18039;52.188;21.024;2022-07-23T10:31:07;74019.44;;;-141.45;37.89
31403;BME280;18039;52.188;21.024;2022-07-23T10:34:07;73995.13;;;-141.45;37.87
31403;BME280;18039;52.188;21.024;2022-07-23T10:36:48;73989.06;;;-141.45;37.03
31403;BME280;18039;52.188;21.024;2022-07-23T10:39:31;73982.97;;;-141.45;37.38
31403;BME280;18039;52.188;21.024;2022-07-23T10:42:12;73987.03;;;-141.45;37.09
31403;BME280;18039;52.188;21.024;2022-07-23T10:44:45;73974.88;;;-141.45;37.34
31403;BME280;18039;52.188;21.024;2022-07-23T10:47:21;73966.78;;;-141.45;37.25
31403;BME280;18039;52.188;21.024;2022-07-23T10:50:33;73966.78;;;-141.45;37.75
31403;BME280;18039;52.188;21.024;2022-07-23T10:55:41;73954.63;;;-141.45;37.17
31403;BME280;18039;52.188;21.024;2022-07-23T10:58:09;73948.53;;;-141.45;37.15
31403;BME280;18039;52.188;21.024;2022-07-23T11:00:37;73946.53;;;-141.45;37.46
31403;BME280;18039;52.188;21.024;2022-07-23T11:03:33;73940.44;;;-141.45;36.81
31403;BME280;18039;52.188;21.024;2022-07-23T11:06:04;73932.34;;;-141.45;36.35
31403;BME280;18039;52.188;21.024;2022-07-23T11:08:31;73932.34;;;-141.45;36.46
31403;BME280;18039;52.188;21.024;2022-07-23T11:13:31;73914.13;;;-141.45;35.97
31403;BME280;18039;52.188;21.024;2022-07-23T11:32:24;73875.63;;;-141.45;35.89
31403;BME280;18039;52.188;21.024;2022-07-23T11:34:53;73869.56;;;-141.45;35.47
31403;BME280;18039;52.188;21.024;2022-07-23T11:39:59;73851.31;;;-141.45;36.04
31403;BME280;18039;52.188;21.024;2022-07-23T11:42:27;73853.34;;;-141.45;36.21
31403;BME280;18039;52.188;21.024;2022-07-23T11:44:57;73845.25;;;-141.45;35.71
31403;BME280;18039;52.188;21.024;2022-07-23T11:47:26;73833.09;;;-141.45;34.22
31403;BME280;18039;52.188;21.024;2022-07-23T11:50:03;73825.00;;;-141.45;34.41
31403;BME280;18039;52.188;21.024;2022-07-23T11:52:30;73812.84;;;-141.45;34.29
31403;BME280;18039;52.188;21.024;2022-07-23T11:55:06;73804.75;;;-141.45;35.04
31403;BME280;18039;52.188;21.024;2022-07-23T11:57:36;73790.56;;;-141.45;33.17
31403;BME280;18039;52.188;21.024;2022-07-23T12:00:12;73788.53;;;-141.45;33.38
31403;BME280;18039;52.188;21.024;2022-07-23T12:02:42;73786.50;;;-141.45;33.96
31403;BME280;18039;52.188;21.024;2022-07-23T12:05:17;73776.38;;;-141.45;34.17
31403;BME280;18039;52.188;21.024;2022-07-23T12:07:48;73770.31;;;-141.45;33.97
31403;BME280;18039;52.188;21.024;2022-07-23T12:10:27;73764.22;;;-141.45;34.04
31403;BME280;18039;52.188;21.024;2022-07-23T12:12:56;73743.97;;;-141.45;33.59
31403;BME280;18039;52.188;21.024;2022-07-23T12:15:26;73735.88;;;-141.45;33.52
31403;BME280;18039;52.188;21.024;2022-07-23T12:17:53;73752.06;;;-141.45;33.63
31403;BME280;18039;52.188;21.024;2022-07-23T12:20:25;73764.22;;;-141.45;33.80
31403;BME280;18039;52.188;21.024;2022-07-23T12:22:56;73772.31;;;-141.45;33.96
31403;BME280;18039;52.188;21.024;2022-07-23T12:25:26;73768.28;;;-141.45;34.33
31403;BME280;18039;52.188;21.024;2022-07-23T12:28:08;73754.09;;;-141.45;34.81
31403;BME280;18039;52.188;21.024;2022-07-23T12:30:49;73741.94;;;-141.45;34.48
31403;BME280;18039;52.188;21.024;2022-07-23T12:33:28;73727.78;;;-141.45;34.47
31403;BME280;18039;52.188;21.024;2022-07-23T12:35:57;73699.41;;;-141.45;33.96
31403;BME280;18039;52.188;21.024;2022-07-23T12:38:27;73662.97;;;-141.45;33.75
31403;BME280;18039;52.188;21.024;2022-07-23T12:40:58;73654.84;;;-141.45;33.11
31403;BME280;18039;52.188;21.024;2022-07-23T12:43:31;73654.84;;;-141.45;32.91
31403;BME280;18039;52.188;21.024;2022-07-23T12:46:16;73658.91;;;-141.45;33.64
31403;BME280;18039;52.188;21.024;2022-07-23T12:54:03;73634.59;;;-141.45;33.85
31403;BME280;18039;52.188;21.024;2022-07-23T12:56:33;73634.59;;;-141.45;33.10
31403;BME280;18039;52.188;21.024;2022-07-23T13:01:35;73638.66;;;-141.45;32.90
31403;BME280;18039;52.188;21.024;2022-07-23T13:09:13;73642.72;;;-141.45;33.42
31403;BME280;18039;52.188;21.024;2022-07-23T13:11:42;73628.53;;;-141.45;33.23
31403;BME280;18039;52.188;21.024;2022-07-23T13:14:09;73624.47;;;-141.45;33.31
31403;BME280;18039;52.188;21.024;2022-07-23T13:16:39;73606.25;;;-141.45;32.73
31403;BME280;18039;52.188;21.024;2022-07-23T13:19:06;73614.34;;;-141.45;32.72
31403;BME280;18039;52.188;21.024;2022-07-23T13:21:39;73618.41;;;-141.45;32.52
31403;BME280;18039;52.188;21.024;2022-07-23T13:24:08;73618.41;;;-141.45;33.03
31403;BME280;18039;52.188;21.024;2022-07-23T13:26:36;73634.59;;;-141.45;32.81
31403;BME280;18039;52.188;21.024;2022-07-23T13:29:05;73636.63;;;-141.45;32.51